sensor_id;sensor_type;location;lat;lon;timestamp;P1;durP1;ratioP1;P2;durP2;ratioP2
1174;SDS011;576;48.418;10.074;2023-03-14T00:01:09;1.23;;;1.00;;
1174;SDS011;576;48.418;10.074;2023-03-14T00:03:40;2.60;;;1.30;;
1174;SDS011;576;48.418;10.074;2023-03-14T00:06:08;1.40;;;1.20;;
1174;SDS011;576;48.418;10.074;2023-03-14T00:08:37;1.63;;;1.30;;
1174;SDS011;576;48.418;10.074;2023-03-14T00:11:06;2.70;;;1.47;;
1174;SDS011;576;48.418;10.074;2023-03-14T00:13:35;1.90;;;1.70;;
1174;SDS011;576;48.418;10.074;2023-03-14T00:16:05;1.53;;;1.10;;
1174;SDS011;576;48.418;10.074;2023-03-14T00:18:34;1.50;;;1.10;;
1174;SDS011;576;48.418;10.074;2023-03-14T00:21:05;1.20;;;1.07;;
1174;SDS011;576;48.418;10.074;2023-03-14T00:23:34;1.37;;;1.27;;
1174;SDS011;576;48.418;10.074;2023-03-14T00:26:05;2.30;;;1.40;;
1174;SDS011;576;48.418;10.074;2023-03-14T00:28:34;4.20;;;1.67;;
1174;SDS011;576;48.418;10.074;2023-03-14T00:31:02;1.80;;;1.03;;
1174;SDS011;576;48.418;10.074;2023-03-14T00:33:32;1.07;;;0.90;;
1174;SDS011;576;48.418;10.074;2023-03-14T00:36:02;1.90;;;1.10;;
1174;SDS011;576;48.418;10.074;2023-03-14T00:38:36;2.07;;;1.40;;
1174;SDS011;576;48.418;10.074;2023-03-14T00:41:05;1.63;;;1.20;;
1174;SDS011;576;48.418;10.074;2023-03-14T00:43:34;1.43;;;1.10;;
1174;SDS011;576;48.418;10.074;2023-03-14T00:46:03;1.33;;;1.03;;
1174;SDS011;576;48.418;10.074;2023-03-14T00:48:31;1.57;;;1.20;;
1174;SDS011;576;48.418;10.074;2023-03-14T00:51:00;2.67;;;1.00;;
1174;SDS011;576;48.418;10.074;2023-03-14T00:53:30;1.13;;;1.03;;
1174;SDS011;576;48.418;10.074;2023-03-14T00:55:59;0.90;;;0.90;;
1174;SDS011;576;48.418;10.074;2023-03-14T00:58:30;2.10;;;1.10;;
1174;SDS011;576;48.418;10.074;2023-03-14T01:00:58;1.67;;;1.20;;
1174;SDS011;576;48.418;10.074;2023-03-14T01:03:26;1.73;;;1.20;;
1174;SDS011;576;48.418;10.074;2023-03-14T01:05:54;2.07;;;1.40;;
1174;SDS011;576;48.418;10.074;2023-03-14T01:08:36;1.47;;;1.00;;
1174;SDS011;576;48.418;10.074;2023-03-14T01:11:05;0.93;;;0.90;;
1174;SDS011;576;48.418;10.074;2023-03-14T01:13:34;1.63;;;1.07;;
1174;SDS011;576;48.418;10.074;2023-03-14T01:16:03;4.10;;;1.10;;
1174;SDS011;576;48.418;10.074;2023-03-14T01:18:36;1.20;;;0.93;;
1174;SDS011;576;48.418;10.074;2023-03-14T01:21:09;1.33;;;1.17;;
1174;SDS011;576;48.418;10.074;2023-03-14T01:23:39;1.70;;;0.90;;
1174;SDS011;576;48.418;10.074;2023-03-14T01:26:08;1.23;;;0.80;;
1174;SDS011;576;48.418;10.074;2023-03-14T01:28:38;2.03;;;0.67;;
1174;SDS011;576;48.418;10.074;2023-03-14T01:31:08;1.90;;;0.90;;
1174;SDS011;576;48.418;10.074;2023-03-14T01:33:37;0.60;;;0.60;;
1174;SDS011;576;48.418;10.074;2023-03-14T01:36:08;1.10;;;1.10;;
1174;SDS011;576;48.418;10.074;2023-03-14T01:38:38;1.20;;;1.10;;
1174;SDS011;576;48.418;10.074;2023-03-14T01:41:12;1.90;;;0.80;;
1174;SDS011;576;48.418;10.074;2023-03-14T01:43:43;1.37;;;0.90;;
1174;SDS011;576;48.418;10.074;2023-03-14T01:46:14;1.10;;;0.70;;
1174;SDS011;576;48.418;10.074;2023-03-14T01:48:58;1.00;;;0.90;;
1174;SDS011;576;48.418;10.074;2023-03-14T01:51:34;1.00;;;0.90;;
1174;SDS011;576;48.418;10.074;2023-03-14T01:54:10;0.67;;;0.67;;
1174;SDS011;576;48.418;10.074;2023-03-14T01:56:44;1.50;;;0.80;;
1174;SDS011;576;48.418;10.074;2023-03-14T01:59:17;0.77;;;0.77;;
1174;SDS011;576;48.418;10.074;2023-03-14T02:01:46;0.83;;;0.70;;
1174;SDS011;576;48.418;10.074;2023-03-14T02:04:17;0.83;;;0.73;;
1174;SDS011;576;48.418;10.074;2023-03-14T02:06:49;0.60;;;0.60;;
1174;SDS011;576;48.418;10.074;2023-03-14T02:09:24;3.53;;;1.00;;
1174;SDS011;576;48.418;10.074;2023-03-14T02:11:53;0.73;;;0.70;;
1174;SDS011;576;48.418;10.074;2023-03-14T02:14:45;1.00;;;1.00;;
1174;SDS011;576;48.418;10.074;2023-03-14T02:17:19;0.80;;;0.60;;
1174;SDS011;576;48.418;10.074;2023-03-14T02:20:13;1.27;;;0.70;;
1174;SDS011;576;48.418;10.074;2023-03-14T02:22:54;0.70;;;0.60;;
1174;SDS011;576;48.418;10.074;2023-03-14T02:25:27;0.83;;;0.83;;
1174;SDS011;576;48.418;10.074;2023-03-14T02:28:07;0.97;;;0.87;;
1174;SDS011;576;48.418;10.074;2023-03-14T02:30:36;1.70;;;0.60;;
1174;SDS011;576;48.418;10.074;2023-03-14T02:33:06;0.83;;;0.70;;
1174;SDS011;576;48.418;10.074;2023-03-14T02:35:36;1.23;;;0.50;;
1174;SDS011;576;48.418;10.074;2023-03-14T02:38:09;0.93;;;0.83;;
1174;SDS011;576;48.418;10.074;2023-03-14T02:40:45;0.60;;;0.60;;
1174;SDS011;576;48.418;10.074;2023-03-14T02:43:14;1.20;;;0.87;;
1174;SDS011;576;48.418;10.074;2023-03-14T02:45:49;0.63;;;0.63;;
1174;SDS011;576;48.418;10.074;2023-03-14T02:48:21;0.80;;;0.80;;
1174;SDS011;576;48.418;10.074;2023-03-14T02:50:53;0.77;;;0.77;;
1174;SDS011;576;48.418;10.074;2023-03-14T02:53:24;0.87;;;0.87;;
1174;SDS011;576;48.418;10.074;2023-03-14T02:55:57;1.73;;;0.80;;
1174;SDS011;576;48.418;10.074;2023-03-14T02:58:27;0.50;;;0.50;;
1174;SDS011;576;48.418;10.074;2023-03-14T03:01:04;0.77;;;0.70;;
1174;SDS011;576;48.418;10.074;2023-03-14T03:03:33;1.20;;;0.60;;
1174;SDS011;576;48.418;10.074;2023-03-14T03:06:01;1.03;;;0.77;;
1174;SDS011;576;48.418;10.074;2023-03-14T03:08:30;1.07;;;0.97;;
1174;SDS011;576;48.418;10.074;2023-03-14T03:10:59;0.50;;;0.50;;
1174;SDS011;576;48.418;10.074;2023-03-14T03:13:31;1.27;;;0.70;;
1174;SDS011;576;48.418;10.074;2023-03-14T03:16:01;0.80;;;0.50;;
1174;SDS011;576;48.418;10.074;2023-03-14T03:18:30;0.60;;;0.60;;
1174;SDS011;576;48.418;10.074;2023-03-14T03:20:59;1.27;;;0.53;;
1174;SDS011;576;48.418;10.074;2023-03-14T03:23:28;0.60;;;0.60;;
1174;SDS011;576;48.418;10.074;2023-03-14T03:25:57;1.63;;;0.80;;
1174;SDS011;576;48.418;10.074;2023-03-14T03:28:25;0.70;;;0.50;;
1174;SDS011;576;48.418;10.074;2023-03-14T03:30:55;0.60;;;0.60;;
1174;SDS011;576;48.418;10.074;2023-03-14T03:33:24;0.50;;;0.47;;
1174;SDS011;576;48.418;10.074;2023-03-14T03:35:52;1.20;;;0.70;;
1174;SDS011;576;48.418;10.074;2023-03-14T03:38:27;0.83;;;0.50;;
1174;SDS011;576;48.418;10.074;2023-03-14T03:40:57;0.80;;;0.60;;
1174;SDS011;576;48.418;10.074;2023-03-14T03:43:26;1.00;;;0.53;;
1174;SDS011;576;48.418;10.074;2023-03-14T03:45:57;0.53;;;0.53;;
1174;SDS011;576;48.418;10.074;2023-03-14T03:48:26;0.90;;;0.60;;
1174;SDS011;576;48.418;10.074;2023-03-14T03:50:54;0.80;;;0.57;;
1174;SDS011;576;48.418;10.074;2023-03-14T03:53:22;0.50;;;0.43;;
1174;SDS011;576;48.418;10.074;2023-03-14T03:56:01;0.40;;;0.40;;
1174;SDS011;576;48.418;10.074;2023-03-14T03:58:29;0.80;;;0.60;;
1174;SDS011;576;48.418;10.074;2023-03-14T04:00:59;0.57;;;0.40;;
1174;SDS011;576;48.418;10.074;2023-03-14T04:03:27;0.60;;;0.60;;
1174;SDS011;576;48.418;10.074;2023-03-14T04:05:59;0.97;;;0.60;;
1174;SDS011;576;48.418;10.074;2023-03-14T04:08:27;0.50;;;0.50;;
1174;SDS011;576;48.418;10.074;2023-03-14T04:10:56;0.43;;;0.43;;
1174;SDS011;576;48.418;10.074;2023-03-14T04:14:04;0.80;;;0.60;;
1174;SDS011;576;48.418;10.074;2023-03-14T04:16:34;1.00;;;0.80;;
1174;SDS011;576;48.418;10.074;2023-03-14T04:19:09;0.40;;;0.30;;
1174;SDS011;576;48.418;10.074;2023-03-14T04:21:37;0.63;;;0.50;;
1174;SDS011;576;48.418;10.074;2023-03-14T04:24:09;0.67;;;0.50;;
1174;SDS011;576;48.418;10.074;2023-03-14T04:26:39;0.50;;;0.50;;
1174;SDS011;576;48.418;10.074;2023-03-14T04:29:09;0.60;;;0.50;;
1174;SDS011;576;48.418;10.074;2023-03-14T04:31:40;0.60;;;0.50;;
1174;SDS011;576;48.418;10.074;2023-03-14T04:34:09;0.40;;;0.40;;
1174;SDS011;576;48.418;10.074;2023-03-14T04:36:46;1.60;;;0.67;;
1174;SDS011;576;48.418;10.074;2023-03-14T04:39:19;0.40;;;0.30;;
1174;SDS011;576;48.418;10.074;2023-03-14T04:41:54;0.50;;;0.50;;
1174;SDS011;576;48.418;10.074;2023-03-14T04:44:24;0.60;;;0.57;;
1174;SDS011;576;48.418;10.074;2023-03-14T04:46:54;0.53;;;0.40;;
1174;SDS011;576;48.418;10.074;2023-03-14T04:49:23;0.40;;;0.40;;
1174;SDS011;576;48.418;10.074;2023-03-14T04:51:51;0.90;;;0.40;;
1174;SDS011;576;48.418;10.074;2023-03-14T04:54:22;0.40;;;0.40;;
1174;SDS011;576;48.418;10.074;2023-03-14T04:56:54;0.40;;;0.40;;
1174;SDS011;576;48.418;10.074;2023-03-14T04:59:24;0.40;;;0.40;;
1174;SDS011;576;48.418;10.074;2023-03-14T05:01:58;0.57;;;0.57;;
1174;SDS011;576;48.418;10.074;2023-03-14T05:04:39;0.50;;;0.40;;
1174;SDS011;576;48.418;10.074;2023-03-14T05:07:13;0.40;;;0.40;;
1174;SDS011;576;48.418;10.074;2023-03-14T05:10:00;0.73;;;0.50;;
1174;SDS011;576;48.418;10.074;2023-03-14T05:12:53;0.40;;;0.40;;
1174;SDS011;576;48.418;10.074;2023-03-14T05:15:47;0.60;;;0.40;;
1174;SDS011;576;48.418;10.074;2023-03-14T05:18:41;0.47;;;0.47;;
1174;SDS011;576;48.418;10.074;2023-03-14T05:21:27;0.80;;;0.60;;
1174;SDS011;576;48.418;10.074;2023-03-14T05:24:17;0.40;;;0.40;;
1174;SDS011;576;48.418;10.074;2023-03-14T05:26:58;0.50;;;0.50;;
1174;SDS011;576;48.418;10.074;2023-03-14T05:29:29;0.40;;;0.40;;
1174;SDS011;576;48.418;10.074;2023-03-14T05:32:11;0.40;;;0.40;;
1174;SDS011;576;48.418;10.074;2023-03-14T05:35:07;0.40;;;0.30;;
1174;SDS011;576;48.418;10.074;2023-03-14T05:38:02;0.60;;;0.50;;
1174;SDS011;576;48.418;10.074;2023-03-14T05:40:30;0.30;;;0.30;;
1174;SDS011;576;48.418;10.074;2023-03-14T05:43:30;0.40;;;0.40;;
1174;SDS011;576;48.418;10.074;2023-03-14T05:46:10;0.50;;;0.40;;
1174;SDS011;576;48.418;10.074;2023-03-14T05:49:01;0.90;;;0.40;;
1174;SDS011;576;48.418;10.074;2023-03-14T05:51:50;0.60;;;0.60;;
1174;SDS011;576;48.418;10.074;2023-03-14T05:54:44;0.40;;;0.40;;
1174;SDS011;576;48.418;10.074;2023-03-14T05:57:47;1.33;;;0.47;;
1174;SDS011;576;48.418;10.074;2023-03-14T06:00:33;0.60;;;0.60;;
1174;SDS011;576;48.418;10.074;2023-03-14T06:03:16;0.60;;;0.40;;
1174;SDS011;576;48.418;10.074;2023-03-14T06:05:49;0.60;;;0.47;;
1174;SDS011;576;48.418;10.074;2023-03-14T06:08:20;0.40;;;0.40;;
1174;SDS011;576;48.418;10.074;2023-03-14T06:10:49;0.40;;;0.40;;
1174;SDS011;576;48.418;10.074;2023-03-14T06:13:18;0.40;;;0.40;;
1174;SDS011;576;48.418;10.074;2023-03-14T06:15:46;0.70;;;0.50;;
1174;SDS011;576;48.418;10.074;2023-03-14T06:18:15;0.50;;;0.50;;
1174;SDS011;576;48.418;10.074;2023-03-14T06:20:43;0.70;;;0.60;;
1174;SDS011;576;48.418;10.074;2023-03-14T06:23:20;1.47;;;1.33;;
1174;SDS011;576;48.418;10.074;2023-03-14T06:25:49;3.80;;;0.70;;
1174;SDS011;576;48.418;10.074;2023-03-14T06:28:21;2.20;;;0.50;;
1174;SDS011;576;48.418;10.074;2023-03-14T06:30:52;0.60;;;0.50;;
1174;SDS011;576;48.418;10.074;2023-03-14T06:33:20;0.77;;;0.40;;
1174;SDS011;576;48.418;10.074;2023-03-14T06:35:48;1.90;;;0.67;;
1174;SDS011;576;48.418;10.074;2023-03-14T06:38:17;2.23;;;0.90;;
1174;SDS011;576;48.418;10.074;2023-03-14T06:40:47;2.30;;;1.30;;
1174;SDS011;576;48.418;10.074;2023-03-14T06:43:25;0.87;;;0.67;;
1174;SDS011;576;48.418;10.074;2023-03-14T06:45:54;1.43;;;0.83;;
1174;SDS011;576;48.418;10.074;2023-03-14T06:48:22;2.13;;;0.90;;
1174;SDS011;576;48.418;10.074;2023-03-14T06:50:52;1.27;;;0.70;;
1174;SDS011;576;48.418;10.074;2023-03-14T06:53:21;0.80;;;0.80;;
1174;SDS011;576;48.418;10.074;2023-03-14T06:55:51;0.87;;;0.60;;
1174;SDS011;576;48.418;10.074;2023-03-14T06:58:19;0.83;;;0.60;;
1174;SDS011;576;48.418;10.074;2023-03-14T07:00:48;1.40;;;0.80;;
1174;SDS011;576;48.418;10.074;2023-03-14T07:03:21;1.77;;;0.80;;
1174;SDS011;576;48.418;10.074;2023-03-14T07:05:52;2.20;;;1.10;;
1174;SDS011;576;48.418;10.074;2023-03-14T07:08:20;1.20;;;1.00;;
1174;SDS011;576;48.418;10.074;2023-03-14T07:10:48;2.20;;;0.97;;
1174;SDS011;576;48.418;10.074;2023-03-14T07:13:18;2.10;;;0.90;;
1174;SDS011;576;48.418;10.074;2023-03-14T07:15:53;3.27;;;1.10;;
1174;SDS011;576;48.418;10.074;2023-03-14T07:18:22;2.10;;;0.90;;
1174;SDS011;576;48.418;10.074;2023-03-14T07:20:50;2.30;;;1.00;;
1174;SDS011;576;48.418;10.074;2023-03-14T07:23:18;1.77;;;1.30;;
1174;SDS011;576;48.418;10.074;2023-03-14T07:25:49;3.47;;;0.90;;
1174;SDS011;576;48.418;10.074;2023-03-14T07:28:23;8.83;;;1.17;;
1174;SDS011;576;48.418;10.074;2023-03-14T07:31:01;1.90;;;0.90;;
1174;SDS011;576;48.418;10.074;2023-03-14T07:33:31;3.30;;;1.27;;
1174;SDS011;576;48.418;10.074;2023-03-14T07:36:00;2.43;;;0.90;;
1174;SDS011;576;48.418;10.074;2023-03-14T07:38:30;3.00;;;0.80;;
1174;SDS011;576;48.418;10.074;2023-03-14T07:41:11;2.90;;;1.30;;
1174;SDS011;576;48.418;10.074;2023-03-14T07:43:49;3.20;;;1.33;;
1174;SDS011;576;48.418;10.074;2023-03-14T07:46:20;4.03;;;1.33;;
1174;SDS011;576;48.418;10.074;2023-03-14T07:48:48;2.10;;;1.07;;
1174;SDS011;576;48.418;10.074;2023-03-14T07:51:16;1.50;;;0.83;;
1174;SDS011;576;48.418;10.074;2023-03-14T07:53:44;3.43;;;1.23;;
1174;SDS011;576;48.418;10.074;2023-03-14T07:56:13;4.80;;;0.90;;
1174;SDS011;576;48.418;10.074;2023-03-14T07:58:41;1.60;;;1.07;;
1174;SDS011;576;48.418;10.074;2023-03-14T08:01:10;0.73;;;0.63;;
1174;SDS011;576;48.418;10.074;2023-03-14T08:03:38;1.30;;;1.13;;
1174;SDS011;576;48.418;10.074;2023-03-14T08:06:06;1.90;;;0.90;;
1174;SDS011;576;48.418;10.074;2023-03-14T08:08:35;3.53;;;1.23;;
1174;SDS011;576;48.418;10.074;2023-03-14T08:11:03;1.60;;;0.60;;
1174;SDS011;576;48.418;10.074;2023-03-14T08:13:32;4.23;;;1.37;;
1174;SDS011;576;48.418;10.074;2023-03-14T08:16:00;2.20;;;1.00;;
1174;SDS011;576;48.418;10.074;2023-03-14T08:18:30;1.10;;;0.73;;
1174;SDS011;576;48.418;10.074;2023-03-14T08:20:58;2.00;;;1.03;;
1174;SDS011;576;48.418;10.074;2023-03-14T08:23:26;0.93;;;0.67;;
1174;SDS011;576;48.418;10.074;2023-03-14T08:25:54;2.87;;;1.47;;
1174;SDS011;576;48.418;10.074;2023-03-14T08:28:22;2.57;;;1.03;;
1174;SDS011;576;48.418;10.074;2023-03-14T08:30:56;2.43;;;0.80;;
1174;SDS011;576;48.418;10.074;2023-03-14T08:33:25;3.43;;;1.60;;
1174;SDS011;576;48.418;10.074;2023-03-14T08:35:56;1.70;;;0.90;;
1174;SDS011;576;48.418;10.074;2023-03-14T08:38:27;4.73;;;0.93;;
1174;SDS011;576;48.418;10.074;2023-03-14T08:40:55;3.23;;;0.77;;
1174;SDS011;576;48.418;10.074;2023-03-14T08:43:24;0.80;;;0.70;;
1174;SDS011;576;48.418;10.074;2023-03-14T08:45:53;1.47;;;0.70;;
1174;SDS011;576;48.418;10.074;2023-03-14T08:48:21;1.67;;;1.10;;
1174;SDS011;576;48.418;10.074;2023-03-14T08:50:49;1.77;;;1.27;;
1174;SDS011;576;48.418;10.074;2023-03-14T08:53:18;1.37;;;0.83;;
1174;SDS011;576;48.418;10.074;2023-03-14T08:55:51;1.33;;;0.80;;
1174;SDS011;576;48.418;10.074;2023-03-14T08:58:21;1.20;;;0.77;;
1174;SDS011;576;48.418;10.074;2023-03-14T09:00:50;1.80;;;0.80;;
1174;SDS011;576;48.418;10.074;2023-03-14T09:03:18;1.70;;;0.80;;
1174;SDS011;576;48.418;10.074;2023-03-14T09:05:49;0.73;;;0.70;;
1174;SDS011;576;48.418;10.074;2023-03-14T09:08:19;0.77;;;0.60;;
1174;SDS011;576;48.418;10.074;2023-03-14T09:10:47;1.60;;;1.20;;
1174;SDS011;576;48.418;10.074;2023-03-14T09:13:15;1.03;;;0.80;;
1174;SDS011;576;48.418;10.074;2023-03-14T09:15:43;1.60;;;0.80;;
1174;SDS011;576;48.418;10.074;2023-03-14T09:18:11;1.23;;;0.80;;
1174;SDS011;576;48.418;10.074;2023-03-14T09:20:39;1.60;;;1.10;;
1174;SDS011;576;48.418;10.074;2023-03-14T09:23:08;1.73;;;1.00;;
1174;SDS011;576;48.418;10.074;2023-03-14T09:25:37;0.97;;;0.80;;
1174;SDS011;576;48.418;10.074;2023-03-14T09:28:05;1.37;;;0.90;;
1174;SDS011;576;48.418;10.074;2023-03-14T09:30:34;1.67;;;1.00;;
1174;SDS011;576;48.418;10.074;2023-03-14T09:33:02;1.10;;;0.80;;
1174;SDS011;576;48.418;10.074;2023-03-14T09:35:30;0.63;;;0.63;;
1174;SDS011;576;48.418;10.074;2023-03-14T09:38:00;0.97;;;0.70;;
1174;SDS011;576;48.418;10.074;2023-03-14T09:40:31;1.13;;;0.80;;
1174;SDS011;576;48.418;10.074;2023-03-14T09:43:03;1.33;;;0.77;;
1174;SDS011;576;48.418;10.074;2023-03-14T09:45:32;2.70;;;1.00;;
1174;SDS011;576;48.418;10.074;2023-03-14T09:48:03;1.17;;;0.77;;
1174;SDS011;576;48.418;10.074;2023-03-14T09:50:33;0.60;;;0.60;;
1174;SDS011;576;48.418;10.074;2023-03-14T09:53:07;2.07;;;0.93;;
1174;SDS011;576;48.418;10.074;2023-03-14T09:55:40;2.03;;;0.70;;
1174;SDS011;576;48.418;10.074;2023-03-14T09:58:12;1.03;;;0.60;;
1174;SDS011;576;48.418;10.074;2023-03-14T10:00:43;1.13;;;0.70;;
1174;SDS011;576;48.418;10.074;2023-03-14T10:03:22;1.57;;;0.90;;
1174;SDS011;576;48.418;10.074;2023-03-14T10:05:53;0.80;;;0.80;;
1174;SDS011;576;48.418;10.074;2023-03-14T10:08:23;0.67;;;0.67;;
1174;SDS011;576;48.418;10.074;2023-03-14T10:10:52;0.80;;;0.77;;
1174;SDS011;576;48.418;10.074;2023-03-14T10:13:23;1.20;;;0.80;;
1174;SDS011;576;48.418;10.074;2023-03-14T10:15:54;0.60;;;0.60;;
1174;SDS011;576;48.418;10.074;2023-03-14T10:18:28;0.80;;;0.60;;
1174;SDS011;576;48.418;10.074;2023-03-14T10:21:04;5.57;;;0.87;;
1174;SDS011;576;48.418;10.074;2023-03-14T10:23:34;1.07;;;0.87;;
1174;SDS011;576;48.418;10.074;2023-03-14T10:26:05;0.70;;;0.60;;
1174;SDS011;576;48.418;10.074;2023-03-14T10:28:38;3.40;;;0.60;;
1174;SDS011;576;48.418;10.074;2023-03-14T10:31:09;1.07;;;0.53;;
1174;SDS011;576;48.418;10.074;2023-03-14T10:33:38;0.60;;;0.60;;
1174;SDS011;576;48.418;10.074;2023-03-14T10:36:15;0.80;;;0.70;;
1174;SDS011;576;48.418;10.074;2023-03-14T10:38:47;1.20;;;0.60;;
1174;SDS011;576;48.418;10.074;2023-03-14T10:41:16;0.70;;;0.50;;
1174;SDS011;576;48.418;10.074;2023-03-14T10:43:47;1.23;;;0.80;;
1174;SDS011;576;48.418;10.074;2023-03-14T10:46:18;1.27;;;0.90;;
1174;SDS011;576;48.418;10.074;2023-03-14T10:49:06;0.97;;;0.80;;
1174;SDS011;576;48.418;10.074;2023-03-14T10:51:35;2.67;;;0.90;;
1174;SDS011;576;48.418;10.074;2023-03-14T10:54:03;0.60;;;0.60;;
1174;SDS011;576;48.418;10.074;2023-03-14T10:56:40;0.40;;;0.40;;
1174;SDS011;576;48.418;10.074;2023-03-14T10:59:12;0.37;;;0.30;;
1174;SDS011;576;48.418;10.074;2023-03-14T11:01:44;0.40;;;0.40;;
1174;SDS011;576;48.418;10.074;2023-03-14T11:04:22;1.40;;;0.60;;
1174;SDS011;576;48.418;10.074;2023-03-14T11:07:07;0.57;;;0.50;;
1174;SDS011;576;48.418;10.074;2023-03-14T11:09:42;0.60;;;0.60;;
1174;SDS011;576;48.418;10.074;2023-03-14T11:12:19;1.63;;;0.60;;
1174;SDS011;576;48.418;10.074;2023-03-14T11:15:02;0.60;;;0.60;;
1174;SDS011;576;48.418;10.074;2023-03-14T11:17:38;0.60;;;0.40;;
1174;SDS011;576;48.418;10.074;2023-03-14T11:20:17;0.60;;;0.40;;
1174;SDS011;576;48.418;10.074;2023-03-14T11:22:59;1.00;;;0.70;;
1174;SDS011;576;48.418;10.074;2023-03-14T11:25:36;1.07;;;0.70;;
1174;SDS011;576;48.418;10.074;2023-03-14T11:28:14;0.83;;;0.47;;
1174;SDS011;576;48.418;10.074;2023-03-14T11:30:49;0.70;;;0.43;;
1174;SDS011;576;48.418;10.074;2023-03-14T11:33:21;0.40;;;0.40;;
1174;SDS011;576;48.418;10.074;2023-03-14T11:35:54;1.83;;;0.60;;
1174;SDS011;576;48.418;10.074;2023-03-14T11:38:31;0.80;;;0.70;;
1174;SDS011;576;48.418;10.074;2023-03-14T11:41:04;0.77;;;0.60;;
1174;SDS011;576;48.418;10.074;2023-03-14T11:43:39;0.60;;;0.50;;
1174;SDS011;576;48.418;10.074;2023-03-14T11:46:11;0.50;;;0.50;;
1174;SDS011;576;48.418;10.074;2023-03-14T11:48:45;0.77;;;0.53;;
1174;SDS011;576;48.418;10.074;2023-03-14T11:51:22;0.60;;;0.60;;
1174;SDS011;576;48.418;10.074;2023-03-14T11:53:56;0.40;;;0.40;;
1174;SDS011;576;48.418;10.074;2023-03-14T11:56:33;0.70;;;0.60;;
1174;SDS011;576;48.418;10.074;2023-03-14T11:59:14;0.70;;;0.60;;
1174;SDS011;576;48.418;10.074;2023-03-14T12:01:55;1.57;;;0.50;;
1174;SDS011;576;48.418;10.074;2023-03-14T12:04:31;1.10;;;0.57;;
1174;SDS011;576;48.418;10.074;2023-03-14T12:07:12;0.60;;;0.53;;
1174;SDS011;576;48.418;10.074;2023-03-14T12:09:47;0.87;;;0.60;;
1174;SDS011;576;48.418;10.074;2023-03-14T12:12:17;0.83;;;0.40;;
1174;SDS011;576;48.418;10.074;2023-03-14T12:14:52;1.13;;;0.50;;
1174;SDS011;576;48.418;10.074;2023-03-14T12:17:24;1.43;;;0.50;;
1174;SDS011;576;48.418;10.074;2023-03-14T12:20:02;0.60;;;0.60;;
1174;SDS011;576;48.418;10.074;2023-03-14T12:22:34;0.60;;;0.50;;
1174;SDS011;576;48.418;10.074;2023-03-14T12:25:13;3.50;;;1.70;;
1174;SDS011;576;48.418;10.074;2023-03-14T12:30:46;4.60;;;1.30;;
1174;SDS011;576;48.418;10.074;2023-03-14T12:33:27;4.30;;;2.20;;
1174;SDS011;576;48.418;10.074;2023-03-14T12:35:57;7.73;;;2.03;;
1174;SDS011;576;48.418;10.074;2023-03-14T12:41:23;3.27;;;2.20;;
1174;SDS011;576;48.418;10.074;2023-03-14T12:43:55;8.17;;;2.30;;
1174;SDS011;576;48.418;10.074;2023-03-14T12:46:24;5.00;;;2.37;;
1174;SDS011;576;48.418;10.074;2023-03-14T12:48:55;3.43;;;1.87;;
1174;SDS011;576;48.418;10.074;2023-03-14T12:51:34;4.37;;;2.10;;
1174;SDS011;576;48.418;10.074;2023-03-14T12:57:06;7.10;;;2.50;;
1174;SDS011;576;48.418;10.074;2023-03-14T12:59:45;3.90;;;2.50;;
1174;SDS011;576;48.418;10.074;2023-03-14T13:02:20;4.53;;;2.57;;
1174;SDS011;576;48.418;10.074;2023-03-14T13:04:53;5.10;;;2.30;;
1174;SDS011;576;48.418;10.074;2023-03-14T13:07:30;7.37;;;2.20;;
1174;SDS011;576;48.418;10.074;2023-03-14T13:10:02;5.97;;;2.80;;
1174;SDS011;576;48.418;10.074;2023-03-14T13:12:36;6.03;;;2.60;;
1174;SDS011;576;48.418;10.074;2023-03-14T13:15:17;4.60;;;2.37;;
1174;SDS011;576;48.418;10.074;2023-03-14T13:17:50;6.10;;;2.80;;
1174;SDS011;576;48.418;10.074;2023-03-14T13:20:24;4.43;;;2.60;;
1174;SDS011;576;48.418;10.074;2023-03-14T13:22:56;6.63;;;3.40;;
1174;SDS011;576;48.418;10.074;2023-03-14T13:25:28;5.13;;;2.30;;
1174;SDS011;576;48.418;10.074;2023-03-14T13:28:00;3.90;;;2.70;;
1174;SDS011;576;48.418;10.074;2023-03-14T13:30:35;4.50;;;2.00;;
1174;SDS011;576;48.418;10.074;2023-03-14T13:33:06;4.80;;;2.17;;
1174;SDS011;576;48.418;10.074;2023-03-14T13:35:43;3.17;;;2.80;;
1174;SDS011;576;48.418;10.074;2023-03-14T13:38:14;4.70;;;2.80;;
1174;SDS011;576;48.418;10.074;2023-03-14T13:40:46;4.73;;;2.53;;
1174;SDS011;576;48.418;10.074;2023-03-14T13:43:16;5.80;;;2.20;;
1174;SDS011;576;48.418;10.074;2023-03-14T13:45:48;4.60;;;2.33;;
1174;SDS011;576;48.418;10.074;2023-03-14T13:48:18;8.67;;;2.33;;
1174;SDS011;576;48.418;10.074;2023-03-14T13:50:53;5.73;;;2.73;;
1174;SDS011;576;48.418;10.074;2023-03-14T13:53:24;3.20;;;2.00;;
1174;SDS011;576;48.418;10.074;2023-03-14T13:55:52;3.00;;;2.13;;
1174;SDS011;576;48.418;10.074;2023-03-14T13:58:25;6.10;;;2.10;;
1174;SDS011;576;48.418;10.074;2023-03-14T14:00:55;3.53;;;1.70;;
1174;SDS011;576;48.418;10.074;2023-03-14T14:03:39;4.30;;;3.20;;
1174;SDS011;576;48.418;10.074;2023-03-14T14:06:16;6.17;;;2.83;;
1174;SDS011;576;48.418;10.074;2023-03-14T14:08:50;4.50;;;2.00;;
1174;SDS011;576;48.418;10.074;2023-03-14T14:11:21;3.00;;;1.93;;
1174;SDS011;576;48.418;10.074;2023-03-14T14:14:11;3.03;;;2.33;;
1174;SDS011;576;48.418;10.074;2023-03-14T14:16:42;6.80;;;1.83;;
1174;SDS011;576;48.418;10.074;2023-03-14T14:19:11;7.33;;;2.40;;
1174;SDS011;576;48.418;10.074;2023-03-14T14:21:42;6.20;;;2.90;;
1174;SDS011;576;48.418;10.074;2023-03-14T14:24:14;4.57;;;2.07;;
1174;SDS011;576;48.418;10.074;2023-03-14T14:26:46;4.53;;;2.33;;
1174;SDS011;576;48.418;10.074;2023-03-14T14:29:22;4.10;;;1.93;;
1174;SDS011;576;48.418;10.074;2023-03-14T14:32:03;4.03;;;2.00;;
1174;SDS011;576;48.418;10.074;2023-03-14T14:34:39;2.53;;;1.90;;
1174;SDS011;576;48.418;10.074;2023-03-14T14:37:21;4.00;;;2.00;;
1174;SDS011;576;48.418;10.074;2023-03-14T14:39:54;5.10;;;2.00;;
1174;SDS011;576;48.418;10.074;2023-03-14T14:42:25;5.20;;;2.70;;
1174;SDS011;576;48.418;10.074;2023-03-14T14:44:57;4.50;;;2.10;;
1174;SDS011;576;48.418;10.074;2023-03-14T14:47:26;7.03;;;1.77;;
1174;SDS011;576;48.418;10.074;2023-03-14T14:49:58;2.90;;;1.90;;
1174;SDS011;576;48.418;10.074;2023-03-14T14:52:33;6.40;;;2.07;;
1174;SDS011;576;48.418;10.074;2023-03-14T14:55:12;3.03;;;1.83;;
1174;SDS011;576;48.418;10.074;2023-03-14T14:57:48;4.13;;;1.80;;
1174;SDS011;576;48.418;10.074;2023-03-14T15:00:19;2.40;;;1.57;;
1174;SDS011;576;48.418;10.074;2023-03-14T15:02:49;4.97;;;2.50;;
1174;SDS011;576;48.418;10.074;2023-03-14T15:05:22;5.80;;;1.80;;
1174;SDS011;576;48.418;10.074;2023-03-14T15:07:52;5.60;;;1.40;;
1174;SDS011;576;48.418;10.074;2023-03-14T15:10:22;4.67;;;1.93;;
1174;SDS011;576;48.418;10.074;2023-03-14T15:12:51;2.20;;;1.33;;
1174;SDS011;576;48.418;10.074;2023-03-14T15:15:20;1.57;;;1.43;;
1174;SDS011;576;48.418;10.074;2023-03-14T15:17:48;3.77;;;1.40;;
1174;SDS011;576;48.418;10.074;2023-03-14T15:20:17;5.13;;;1.97;;
1174;SDS011;576;48.418;10.074;2023-03-14T15:22:45;8.70;;;1.70;;
1174;SDS011;576;48.418;10.074;2023-03-14T15:25:15;2.20;;;1.47;;
1174;SDS011;576;48.418;10.074;2023-03-14T15:28:05;3.70;;;1.80;;
1174;SDS011;576;48.418;10.074;2023-03-14T15:30:44;1.90;;;1.40;;
1174;SDS011;576;48.418;10.074;2023-03-14T15:33:13;1.57;;;1.27;;
1174;SDS011;576;48.418;10.074;2023-03-14T15:35:41;3.33;;;1.20;;
1174;SDS011;576;48.418;10.074;2023-03-14T15:38:10;2.27;;;1.57;;
1174;SDS011;576;48.418;10.074;2023-03-14T15:40:41;2.20;;;1.50;;
1174;SDS011;576;48.418;10.074;2023-03-14T15:43:10;1.60;;;1.40;;
1174;SDS011;576;48.418;10.074;2023-03-14T15:45:38;1.33;;;1.17;;
1174;SDS011;576;48.418;10.074;2023-03-14T15:48:09;5.80;;;1.47;;
1174;SDS011;576;48.418;10.074;2023-03-14T15:50:41;2.13;;;1.43;;
1174;SDS011;576;48.418;10.074;2023-03-14T15:53:10;3.17;;;1.80;;
1174;SDS011;576;48.418;10.074;2023-03-14T15:55:38;3.17;;;1.30;;
1174;SDS011;576;48.418;10.074;2023-03-14T15:58:09;1.70;;;1.17;;